Time;durP1;ratioP1;P1;durP2;ratioP2;P2;SDS_P1;SDS_P2;PMS_P1;PMS_P2;Temp;Humidity;BMP_temperature;BMP_pressure;BME280_temperature;BME280_humidity;BME280_pressure;Samples;Min_cycle;Max_cycle;Signal;HPM_P1;HPM_P2
2021/06/26 00:00:13;;;;;;;14.97;8.93;;;;;;;13.09;86.26;96913.47;3551588;40;20458;-73
2021/06/26 00:02:41;;;;;;;15.27;9.73;;;;;;;13.19;86.00;96908.38;3551510;40;20692;-72
2021/06/26 00:05:11;;;;;;;14.13;8.87;;;;;;;13.19;86.24;96906.59;3557154;40;20531;-72
2021/06/26 00:07:40;;;;;;;14.00;10.20;;;;;;;13.20;86.27;96908.25;3554438;40;20855;-71
2021/06/26 00:10:09;;;;;;;17.40;11.10;;;;;;;13.23;86.06;96902.78;3553189;40;20557;-72
2021/06/26 00:12:37;;;;;;;17.07;10.90;;;;;;;12.99;86.20;96901.97;3553484;40;20684;-74
2021/06/26 00:15:10;;;;;;;14.37;9.90;;;;;;;13.11;86.44;96908.94;3551004;40;21166;-73
2021/06/26 00:17:38;;;;;;;15.50;10.30;;;;;;;13.19;86.16;96903.97;3552238;40;20562;-71
2021/06/26 00:20:07;;;;;;;17.50;10.20;;;;;;;13.17;85.96;96891.88;3555277;40;20542;-72
2021/06/26 00:22:35;;;;;;;14.83;9.77;;;;;;;13.21;85.79;96894.16;3551990;40;20458;-71
2021/06/26 00:25:03;;;;;;;18.00;10.57;;;;;;;13.17;86.03;96894.50;3551783;40;20847;-71
2021/06/26 00:27:31;;;;;;;19.83;10.63;;;;;;;13.18;86.34;96886.50;3554154;40;20680;-71
2021/06/26 00:29:59;;;;;;;16.53;10.00;;;;;;;13.00;87.15;96872.09;3553895;40;20571;-71
2021/06/26 00:32:28;;;;;;;18.43;9.10;;;;;;;13.21;86.55;96896.78;3554688;40;20447;-72
2021/06/26 00:34:56;;;;;;;12.93;8.40;;;;;;;13.23;86.36;96888.78;3550160;40;20649;-71
2021/06/26 00:37:24;;;;;;;13.33;9.77;;;;;;;13.09;86.24;96897.69;3552477;40;20431;-72
2021/06/26 00:39:52;;;;;;;25.57;10.37;;;;;;;13.00;86.59;96885.25;3551623;40;20820;-73
2021/06/26 00:42:20;;;;;;;15.37;9.33;;;;;;;12.67;86.73;96894.66;3550778;40;20451;-72
2021/06/26 00:44:48;;;;;;;14.77;9.20;;;;;;;12.54;87.20;96888.59;3553442;40;20512;-72
2021/06/26 00:47:15;;;;;;;13.10;9.43;;;;;;;12.46;87.35;96889.13;3551666;40;20469;-73
2021/06/26 00:49:45;;;;;;;24.27;10.83;;;;;;;12.49;87.66;96893.34;3548440;40;21164;-72
2021/06/26 00:52:13;;;;;;;21.97;10.23;;;;;;;12.51;87.61;96888.84;3550218;40;20469;-72
2021/06/26 00:54:41;;;;;;;20.50;9.63;;;;;;;12.68;87.29;96880.53;3551093;40;20561;-72
2021/06/26 00:57:10;;;;;;;12.20;8.57;;;;;;;12.64;87.59;96885.22;3550845;40;20442;-73
2021/06/26 00:59:39;;;;;;;24.20;10.50;;;;;;;12.64;87.69;96886.97;3553154;40;20828;-72
2021/06/26 01:02:08;;;;;;;18.50;10.77;;;;;;;12.70;88.12;96886.56;3558715;40;20917;-72
2021/06/26 01:04:36;;;;;;;16.87;10.00;;;;;;;12.85;87.90;96884.56;3554715;40;20535;-73
2021/06/26 01:07:05;;;;;;;18.83;11.07;;;;;;;12.81;88.01;96888.38;3553206;40;20560;-73
2021/06/26 01:09:33;;;;;;;16.17;10.33;;;;;;;12.76;87.81;96886.09;3548674;40;20863;-72
2021/06/26 01:12:01;;;;;;;20.43;10.60;;;;;;;12.68;88.49;96888.41;3551015;40;20435;-72
2021/06/26 01:14:30;;;;;;;13.70;9.53;;;;;;;12.90;88.04;96878.97;3548130;40;20529;-72
2021/06/26 01:17:04;;;;;;;24.07;10.00;;;;;;;13.02;87.99;96878.09;3550531;40;20823;-75
2021/06/26 01:19:32;;;;;;;18.03;11.63;;;;;;;13.09;87.60;96881.91;3551821;40;20962;-72
2021/06/26 01:22:06;;;;;;;17.30;11.80;;;;;;;13.04;87.56;96868.28;3558038;40;20564;-72
2021/06/26 01:24:36;;;;;;;15.70;10.83;;;;;;;13.16;87.36;96877.06;3548124;40;20598;-71
2021/06/26 01:27:05;;;;;;;15.77;9.60;;;;;;;13.11;86.91;96874.75;3548166;40;21188;-72
2021/06/26 01:29:33;;;;;;;18.03;9.57;;;;;;;13.12;86.46;96873.81;3548295;40;20966;-72
2021/06/26 01:32:01;;;;;;;22.73;10.40;;;;;;;12.49;88.60;96874.97;3550876;40;20831;-72
2021/06/26 01:34:29;;;;;;;21.20;10.13;;;;;;;12.58;88.92;96867.22;3549804;40;20551;-72
2021/06/26 01:36:57;;;;;;;16.07;10.00;;;;;;;12.84;87.84;96873.22;3551221;40;20462;-72
2021/06/26 01:39:25;;;;;;;16.53;9.40;;;;;;;12.95;87.09;96874.22;3549705;40;20941;-72
2021/06/26 01:41:54;;;;;;;16.00;10.10;;;;;;;12.66;88.07;96879.81;3546807;40;20904;-72
2021/06/26 01:44:22;;;;;;;16.07;10.07;;;;;;;12.55;88.97;96872.72;3546720;40;20961;-71
2021/06/26 01:46:51;;;;;;;18.97;10.20;;;;;;;12.80;88.60;96865.66;3558527;40;20914;-71
2021/06/26 01:49:19;;;;;;;19.47;9.60;;;;;;;13.01;88.12;96873.75;3550835;40;20580;-72
2021/06/26 01:51:47;;;;;;;21.10;10.80;;;;;;;13.12;87.42;96870.34;3546594;40;20965;-71
2021/06/26 01:54:15;;;;;;;22.00;9.93;;;;;;;13.15;87.42;96865.72;3546469;40;20878;-71
2021/06/26 01:56:43;;;;;;;19.73;10.97;;;;;;;13.14;87.46;96864.00;3550564;40;20685;-71
2021/06/26 01:59:12;;;;;;;18.73;10.93;;;;;;;13.15;88.04;96870.97;3550611;40;20520;-72
2021/06/26 02:01:40;;;;;;;19.23;11.20;;;;;;;13.18;87.58;96867.25;3549084;40;20459;-73
2021/06/26 02:04:08;;;;;;;21.97;9.97;;;;;;;13.17;87.49;96852.41;3549824;40;20908;-73
2021/06/26 02:06:36;;;;;;;15.23;10.10;;;;;;;13.23;87.40;96857.22;3550158;40;20451;-72
2021/06/26 02:09:06;;;;;;;14.50;10.40;;;;;;;13.24;87.36;96854.47;3553797;40;21162;-75
2021/06/26 02:11:34;;;;;;;15.33;10.80;;;;;;;13.30;87.42;96853.22;3553235;40;20684;-74
2021/06/26 02:14:02;;;;;;;14.70;10.90;;;;;;;13.30;87.10;96852.38;3551635;40;20428;-73
2021/06/26 02:16:31;;;;;;;26.17;11.40;;;;;;;13.30;87.18;96847.94;3553289;40;20482;-74
2021/06/26 02:18:59;;;;;;;18.97;11.13;;;;;;;13.30;87.21;96841.84;3551318;40;20858;-75
2021/06/26 02:21:28;;;;;;;15.37;11.53;;;;;;;13.30;87.08;96847.94;3557118;40;20917;-75
2021/06/26 02:23:56;;;;;;;17.53;11.27;;;;;;;13.31;87.31;96844.38;3552932;40;20439;-75
2021/06/26 02:26:23;;;;;;;18.40;11.17;;;;;;;13.33;87.17;96839.84;3550707;40;20813;-75
2021/06/26 02:28:51;;;;;;;20.93;12.10;;;;;;;13.24;87.19;96841.31;3548866;40;21239;-74
2021/06/26 02:31:19;;;;;;;20.53;10.20;;;;;;;13.16;87.72;96854.22;3549834;40;20443;-74
2021/06/26 02:33:49;;;;;;;22.83;11.90;;;;;;;13.16;87.56;96856.84;3553932;40;20482;-75
2021/06/26 02:36:17;;;;;;;18.67;10.87;;;;;;;13.17;87.86;96852.41;3563192;40;20475;-75
2021/06/26 02:38:45;;;;;;;21.23;10.97;;;;;;;13.22;87.80;96866.06;3560294;40;20450;-74
2021/06/26 02:41:13;;;;;;;18.33;10.30;;;;;;;13.22;87.71;96860.81;3548586;40;20836;-74
2021/06/26 02:43:41;;;;;;;15.23;10.57;;;;;;;13.24;87.45;96853.66;3549727;40;20940;-74
2021/06/26 02:46:09;;;;;;;14.87;10.30;;;;;;;13.18;87.15;96854.09;3551896;40;20761;-74
2021/06/26 02:48:37;;;;;;;17.03;10.83;;;;;;;13.19;87.31;96864.53;3552363;40;20442;-74
2021/06/26 02:51:07;;;;;;;22.77;12.40;;;;;;;13.07;87.68;96857.53;3550207;40;20847;-73
2021/06/26 02:53:35;;;;;;;18.77;11.60;;;;;;;13.04;88.02;96863.03;3553190;40;20450;-73
2021/06/26 02:56:03;;;;;;;22.40;12.77;;;;;;;13.09;88.24;96855.63;3548993;40;20704;-73
2021/06/26 02:58:31;;;;;;;23.50;11.10;;;;;;;13.13;88.11;96850.97;3551087;40;21085;-73
2021/06/26 03:00:59;;;;;;;24.30;13.30;;;;;;;13.10;88.07;96846.78;3547486;40;20461;-73
2021/06/26 03:03:27;;;;;;;17.80;11.97;;;;;;;13.19;87.95;96846.13;3546550;40;20786;-73
2021/06/26 03:05:55;;;;;;;16.73;11.00;;;;;;;13.21;87.49;96844.22;3545843;40;20463;-73
2021/06/26 03:08:24;;;;;;;25.20;12.30;;;;;;;13.22;87.44;96845.03;3545500;40;20851;-71
2021/06/26 03:10:52;;;;;;;19.03;12.20;;;;;;;13.24;87.35;96851.00;3544105;40;20723;-71
2021/06/26 03:13:20;;;;;;;25.83;11.70;;;;;;;13.17;87.34;96853.28;3550921;40;20435;-71
2021/06/26 03:15:48;;;;;;;17.00;10.97;;;;;;;13.20;87.09;96855.66;3547855;40;20767;-71
2021/06/26 03:18:16;;;;;;;19.90;11.20;;;;;;;13.20;86.93;96854.84;3548435;40;20466;-71
2021/06/26 03:20:44;;;;;;;20.50;11.33;;;;;;;13.12;87.33;96849.31;3549871;40;20477;-72
2021/06/26 03:23:12;;;;;;;19.03;11.30;;;;;;;12.98;88.24;96858.22;3550487;40;20569;-75
2021/06/26 03:25:42;;;;;;;18.50;11.20;;;;;;;13.01;88.30;96842.22;3548807;40;20567;-71
2021/06/26 03:28:10;;;;;;;20.07;10.10;;;;;;;13.13;88.00;96836.06;3547588;40;20482;-71
2021/06/26 03:30:38;;;;;;;15.73;11.10;;;;;;;13.20;87.92;96842.50;3547358;40;20852;-72
2021/06/26 03:33:06;;;;;;;21.90;10.60;;;;;;;13.18;87.36;96835.69;3552178;40;20450;-70
2021/06/26 03:35:33;;;;;;;17.20;11.07;;;;;;;12.98;88.14;96851.19;3553372;40;20948;-72
2021/06/26 03:38:01;;;;;;;15.53;9.27;;;;;;;12.90;88.28;96845.66;3552359;40;20831;-73
2021/06/26 03:40:30;;;;;;;19.43;10.20;;;;;;;12.83;88.42;96850.50;3547086;40;20537;-73
2021/06/26 03:43:00;;;;;;;19.17;10.23;;;;;;;12.72;89.00;96853.13;3548366;40;20447;-72
2021/06/26 03:45:27;;;;;;;21.00;11.47;;;;;;;12.74;89.08;96845.97;3546576;40;20466;-73
2021/06/26 03:47:55;;;;;;;22.83;10.20;;;;;;;12.67;89.92;96849.97;3550494;40;20489;-72
2021/06/26 03:50:23;;;;;;;17.73;11.53;;;;;;;12.94;89.17;96839.22;3550260;40;20850;-72
2021/06/26 03:52:51;;;;;;;29.33;11.80;;;;;;;13.13;88.85;96850.97;3548549;40;20804;-73
2021/06/26 03:55:19;;;;;;;15.97;11.03;;;;;;;13.16;88.63;96851.59;3546351;40;20483;-72
2021/06/26 03:57:50;;;;;;;14.97;10.17;;;;;;;13.25;88.39;96856.16;3546240;40;20430;-72
2021/06/26 04:00:23;;;;;;;25.13;12.40;;;;;;;13.33;88.10;96857.38;3548967;40;20463;-73
2021/06/26 04:02:52;;;;;;;15.03;10.97;;;;;;;13.39;88.14;96856.94;3551095;40;20470;-71
2021/06/26 04:05:20;;;;;;;15.87;9.83;;;;;;;13.46;88.20;96863.41;3548269;40;20458;-73
2021/06/26 04:07:48;;;;;;;20.63;11.50;;;;;;;13.51;88.25;96856.00;3546620;40;20439;-73
2021/06/26 04:10:16;;;;;;;19.80;11.03;;;;;;;13.55;87.88;96857.44;3546253;40;20545;-72
2021/06/26 04:12:44;;;;;;;20.40;11.80;;;;;;;13.58;87.55;96867.75;3548675;40;20446;-72
2021/06/26 04:15:12;;;;;;;16.50;11.37;;;;;;;13.69;87.50;96864.28;3552725;40;20702;-72
2021/06/26 04:17:41;;;;;;;14.87;10.83;;;;;;;13.76;86.93;96859.34;3549296;40;20934;-73
2021/06/26 04:20:10;;;;;;;23.70;10.93;;;;;;;13.80;86.99;96860.81;3551398;40;20465;-73
2021/06/26 04:22:39;;;;;;;16.30;10.30;;;;;;;13.83;86.66;96853.50;3548465;40;20513;-73
2021/06/26 04:25:08;;;;;;;17.90;11.20;;;;;;;13.85;87.33;96858.66;3550215;40;20832;-72
2021/06/26 04:27:36;;;;;;;15.33;12.27;;;;;;;13.97;86.34;96862.97;3552297;40;20945;-75
2021/06/26 04:30:05;;;;;;;22.93;12.07;;;;;;;14.04;85.78;96852.78;3545533;40;20460;-74
2021/06/26 04:32:34;;;;;;;22.40;11.00;;;;;;;14.02;85.54;96860.81;3547761;40;20804;-74
2021/06/26 04:35:04;;;;;;;21.77;12.80;;;;;;;13.91;86.94;96858.19;3550731;40;20818;-73
2021/06/26 04:37:32;;;;;;;15.20;11.23;;;;;;;13.88;87.51;96860.19;3548906;40;20436;-73
2021/06/26 04:40:00;;;;;;;18.63;11.23;;;;;;;13.85;87.42;96862.13;3547831;40;20941;-73
2021/06/26 04:42:28;;;;;;;19.10;11.57;;;;;;;14.08;86.29;96858.66;3550544;40;20444;-73
2021/06/26 04:44:58;;;;;;;19.00;12.70;;;;;;;14.17;85.87;96857.91;3547936;40;20472;-73
2021/06/26 04:47:27;;;;;;;17.40;11.70;;;;;;;14.19;86.26;96850.72;3550249;40;20457;-72
2021/06/26 04:49:55;;;;;;;21.47;12.27;;;;;;;14.26;86.33;96846.66;3550820;40;20475;-73
2021/06/26 04:52:24;;;;;;;19.00;11.47;;;;;;;14.13;86.78;96851.22;3552313;40;20891;-75
2021/06/26 04:54:52;;;;;;;17.37;10.80;;;;;;;14.29;86.18;96850.84;3546383;40;20840;-73
2021/06/26 04:57:21;;;;;;;24.20;12.67;;;;;;;14.20;85.64;96847.16;3548633;40;20835;-73
2021/06/26 04:59:49;;;;;;;16.37;11.70;;;;;;;14.20;84.99;96857.69;3546495;40;21204;-73
2021/06/26 05:02:16;;;;;;;18.70;11.50;;;;;;;14.12;86.06;96858.28;3551187;40;20447;-72
2021/06/26 05:04:45;;;;;;;16.63;11.43;;;;;;;14.15;85.73;96859.84;3552941;40;20467;-77
2021/06/26 05:07:13;;;;;;;84.43;55.33;;;;;;;14.22;85.34;96858.41;3552673;40;20473;-74
2021/06/26 05:09:42;;;;;;;26.20;15.70;;;;;;;14.19;85.64;96851.59;3551106;40;21096;-74
2021/06/26 05:12:11;;;;;;;28.33;16.77;;;;;;;14.33;85.13;96860.16;3549807;40;20801;-74
2021/06/26 05:14:39;;;;;;;21.43;11.50;;;;;;;14.50;84.44;96853.56;3547330;40;20496;-74
2021/06/26 05:17:07;;;;;;;33.73;11.90;;;;;;;14.39;84.41;96863.16;3547483;40;20832;-74
2021/06/26 05:19:35;;;;;;;24.83;13.37;;;;;;;14.35;84.48;96859.09;3551679;40;20568;-73
2021/06/26 05:22:03;;;;;;;19.90;12.30;;;;;;;14.64;83.40;96866.47;3551747;40;20455;-74
2021/06/26 05:24:31;;;;;;;18.87;10.80;;;;;;;14.75;83.04;96858.53;3550036;40;20699;-73
2021/06/26 05:27:00;;;;;;;18.70;11.90;;;;;;;14.99;83.11;96854.84;3551763;40;20541;-74
2021/06/26 05:29:28;;;;;;;21.47;11.50;;;;;;;15.19;82.80;96855.84;3549251;40;20479;-73
2021/06/26 05:31:56;;;;;;;21.33;12.17;;;;;;;15.24;83.82;96858.94;3550425;40;20495;-74
2021/06/26 05:34:24;;;;;;;18.93;11.37;;;;;;;15.57;81.01;96849.16;3549186;40;20526;-74
2021/06/26 05:36:52;;;;;;;20.60;11.00;;;;;;;15.72;80.35;96865.47;3551904;40;20440;-74
2021/06/26 05:39:20;;;;;;;18.97;12.20;;;;;;;15.60;80.51;96865.56;3553782;40;20900;-74
2021/06/26 05:41:49;;;;;;;15.87;11.50;;;;;;;15.82;79.82;96869.88;3550524;40;20442;-75
2021/06/26 05:44:19;;;;;;;25.27;13.67;;;;;;;15.72;80.79;96860.19;3550527;40;20466;-74
2021/06/26 05:46:47;;;;;;;26.53;11.87;;;;;;;16.17;79.46;96866.00;3552445;40;20794;-74
2021/06/26 05:49:15;;;;;;;18.17;12.70;;;;;;;16.46;77.85;96862.59;3551152;40;20466;-74
2021/06/26 05:51:42;;;;;;;21.07;12.30;;;;;;;16.58;78.79;96866.81;3553129;40;20821;-75
2021/06/26 05:54:10;;;;;;;23.50;13.17;;;;;;;16.75;76.99;96860.00;3551609;40;20476;-73
2021/06/26 05:56:38;;;;;;;22.53;12.70;;;;;;;16.99;76.22;96864.06;3550805;40;20761;-74
2021/06/26 05:59:06;;;;;;;18.90;12.07;;;;;;;17.19;74.86;96862.28;3550862;40;20447;-76
2021/06/26 06:01:36;;;;;;;16.57;11.97;;;;;;;17.18;75.60;96872.00;3551178;40;20459;-75
2021/06/26 06:04:06;;;;;;;15.97;11.50;;;;;;;17.67;73.83;96863.16;3551703;40;20601;-75
2021/06/26 06:06:35;;;;;;;19.60;12.03;;;;;;;17.90;73.33;96869.00;3551741;40;20503;-76
2021/06/26 06:09:05;;;;;;;20.57;13.10;;;;;;;17.46;73.49;96858.06;3549927;40;20476;-75
2021/06/26 06:11:33;;;;;;;30.93;16.63;;;;;;;17.70;73.05;96862.88;3550599;40;21202;-75
2021/06/26 06:14:02;;;;;;;24.60;15.70;;;;;;;17.30;74.24;96869.22;3551543;40;20445;-74
2021/06/26 06:16:30;;;;;;;23.30;14.60;;;;;;;17.29;74.71;96864.88;3553554;40;20536;-73
2021/06/26 06:19:00;;;;;;;23.10;15.77;;;;;;;17.78;73.99;96866.47;3545782;40;20455;-75
2021/06/26 06:21:27;;;;;;;26.93;15.63;;;;;;;17.83;73.96;96867.88;3551328;40;20931;-73
2021/06/26 06:23:55;;;;;;;24.70;15.83;;;;;;;17.70;74.12;96863.72;3549860;40;20491;-75
2021/06/26 06:26:24;;;;;;;23.40;13.40;;;;;;;18.07;72.36;96859.44;3545964;40;20475;-74
2021/06/26 06:28:51;;;;;;;19.00;12.67;;;;;;;18.16;71.91;96863.88;3545763;40;20450;-74
2021/06/26 06:31:19;;;;;;;22.47;12.80;;;;;;;18.34;71.25;96867.38;3549772;40;20447;-73
2021/06/26 06:33:47;;;;;;;22.83;12.47;;;;;;;18.34;71.00;96871.88;3549364;40;20728;-74
2021/06/26 06:36:17;;;;;;;20.27;12.80;;;;;;;18.29;71.36;96864.38;3548657;40;20482;-75
2021/06/26 06:38:45;;;;;;;20.77;13.97;;;;;;;18.55;71.15;96871.63;3549024;40;20898;-75
2021/06/26 06:41:12;;;;;;;24.10;17.30;;;;;;;18.64;70.60;96867.22;3551000;40;20613;-76
2021/06/26 06:43:40;;;;;;;31.33;21.10;;;;;;;18.97;69.47;96868.41;3552840;40;20528;-76
2021/06/26 06:46:08;;;;;;;31.10;19.23;;;;;;;19.01;69.00;96864.47;3548647;40;20464;-76
2021/06/26 06:48:36;;;;;;;28.97;19.60;;;;;;;19.12;69.98;96863.44;3547037;40;20443;-75
2021/06/26 06:51:05;;;;;;;22.33;15.93;;;;;;;19.70;68.02;96862.06;3547441;40;21297;-74
2021/06/26 06:53:34;;;;;;;22.60;15.50;;;;;;;20.35;64.78;96865.06;3547098;40;20440;-75
2021/06/26 06:56:02;;;;;;;24.67;15.70;;;;;;;19.89;65.54;96875.13;3550092;40;20564;-75
2021/06/26 06:58:30;;;;;;;25.70;15.47;;;;;;;19.33;65.96;96879.88;3551964;40;20450;-75
2021/06/26 07:00:58;;;;;;;24.70;15.57;;;;;;;18.77;68.33;96876.50;3547751;40;20689;-75
2021/06/26 07:03:26;;;;;;;26.17;17.40;;;;;;;18.85;69.47;96874.94;3548858;40;20732;-76
2021/06/26 07:05:54;;;;;;;22.47;15.93;;;;;;;20.24;65.94;96873.31;3549635;40;20774;-76
2021/06/26 07:08:22;;;;;;;23.93;14.77;;;;;;;21.17;63.15;96852.97;3550908;40;20552;-75
2021/06/26 07:10:51;;;;;;;19.00;13.10;;;;;;;21.74;60.09;96866.31;3548263;40;20483;-74
2021/06/26 07:13:19;;;;;;;20.80;15.30;;;;;;;20.72;63.13;96868.38;3549799;40;20437;-76
2021/06/26 07:15:47;;;;;;;24.80;15.37;;;;;;;20.74;61.89;96875.22;3546499;40;20824;-76
2021/06/26 07:18:15;;;;;;;22.97;17.30;;;;;;;19.81;64.49;96874.25;3550888;40;20730;-74
2021/06/26 07:20:43;;;;;;;26.73;17.20;;;;;;;19.49;66.23;96871.19;3551190;40;20469;-76
2021/06/26 07:23:12;;;;;;;24.90;15.50;;;;;;;19.89;66.05;96871.66;3548706;40;20454;-75
2021/06/26 07:25:39;;;;;;;24.50;15.93;;;;;;;20.76;63.48;96876.84;3548314;40;20463;-74
2021/06/26 07:28:09;;;;;;;64.30;39.10;;;;;;;20.77;62.42;96874.03;3548655;40;21228;-74
2021/06/26 07:30:37;;;;;;;26.03;19.50;;;;;;;21.26;61.80;96874.09;3550535;40;20790;-75
2021/06/26 07:33:05;;;;;;;22.70;16.43;;;;;;;21.63;60.15;96874.63;3549705;40;20428;-76
2021/06/26 07:35:33;;;;;;;25.30;17.70;;;;;;;19.91;63.46;96874.97;3547552;40;20731;-78
2021/06/26 07:38:02;;;;;;;24.50;17.20;;;;;;;19.91;64.44;96873.16;3550403;40;20459;-75
2021/06/26 07:40:30;;;;;;;21.70;15.90;;;;;;;20.54;63.00;96871.09;3552036;40;20489;-74
2021/06/26 07:42:58;;;;;;;24.10;14.97;;;;;;;21.30;62.13;96867.44;3552556;40;20447;-75
2021/06/26 07:45:27;;;;;;;21.70;14.57;;;;;;;21.53;60.04;96864.16;3550137;40;20548;-74
2021/06/26 07:47:56;;;;;;;24.87;16.90;;;;;;;21.57;61.01;96865.47;3548500;40;20960;-75
2021/06/26 07:50:24;;;;;;;21.03;13.47;;;;;;;21.66;60.02;96863.63;3546542;40;20463;-74
2021/06/26 07:52:52;;;;;;;21.33;14.97;;;;;;;21.38;59.90;96861.28;3547270;40;20918;-76
2021/06/26 07:55:20;;;;;;;26.17;16.20;;;;;;;20.65;61.98;96862.03;3548913;40;20477;-76
2021/06/26 07:57:48;;;;;;;26.80;15.83;;;;;;;20.13;64.66;96855.84;3551641;40;20475;-75
2021/06/26 08:00:17;;;;;;;21.70;15.13;;;;;;;21.14;63.55;96852.28;3548201;40;20840;-75
2021/06/26 08:02:47;;;;;;;21.03;15.33;;;;;;;21.71;62.20;96845.31;3546098;40;20451;-80
2021/06/26 08:05:15;;;;;;;25.37;16.73;;;;;;;21.86;60.11;96848.94;3545219;40;20468;-79
2021/06/26 08:07:52;;;;;;;25.03;16.23;;;;;;;21.14;62.53;96838.16;3549521;40;20831;-74
2021/06/26 08:10:21;;;;;;;23.63;16.67;;;;;;;21.95;61.04;96843.59;3551903;40;20952;-75
2021/06/26 08:12:49;;;;;;;22.63;15.23;;;;;;;22.50;59.16;96854.25;3551431;40;20465;-75
2021/06/26 08:15:17;;;;;;;28.40;14.70;;;;;;;22.98;57.33;96842.63;3549601;40;20775;-77
2021/06/26 08:17:46;;;;;;;20.73;14.43;;;;;;;22.90;57.88;96835.50;3553328;40;21116;-76
2021/06/26 08:20:14;;;;;;;20.07;13.30;;;;;;;22.85;58.09;96845.88;3553795;40;20553;-75
2021/06/26 08:22:42;;;;;;;20.00;14.87;;;;;;;22.67;57.36;96852.31;3550413;40;20537;-77
2021/06/26 08:25:12;;;;;;;19.30;12.60;;;;;;;22.54;55.45;96846.72;3550374;40;20989;-76
2021/06/26 08:27:40;;;;;;;17.10;13.37;;;;;;;22.16;58.29;96840.38;3549772;40;20482;-76
2021/06/26 08:30:08;;;;;;;19.40;13.30;;;;;;;22.70;57.07;96843.16;3551803;40;20862;-75
2021/06/26 08:32:36;;;;;;;16.70;12.97;;;;;;;22.94;57.21;96836.00;3553222;40;20786;-76
2021/06/26 08:35:07;;;;;;;17.43;12.80;;;;;;;23.61;55.73;96832.63;3550218;40;20840;-75
2021/06/26 08:37:35;;;;;;;15.13;12.33;;;;;;;22.87;55.82;96833.19;3551200;40;20505;-76
2021/06/26 08:40:03;;;;;;;19.40;12.23;;;;;;;24.67;52.51;96834.09;3550765;40;20715;-78
2021/06/26 08:42:31;;;;;;;17.13;11.50;;;;;;;23.87;52.18;96827.72;3551959;40;20940;-75
2021/06/26 08:45:01;;;;;;;15.23;9.93;;;;;;;22.39;55.95;96838.63;3551969;40;20844;-76
2021/06/26 08:47:29;;;;;;;14.07;9.90;;;;;;;21.32;53.81;96838.00;3553317;40;20850;-76
2021/06/26 08:49:57;;;;;;;12.53;9.50;;;;;;;21.98;53.24;96837.94;3550353;40;20864;-75
2021/06/26 08:52:27;;;;;;;15.40;10.07;;;;;;;21.48;56.33;96834.50;3549266;40;20452;-75
2021/06/26 08:54:56;;;;;;;14.30;10.73;;;;;;;22.18;52.35;96838.34;3552751;40;20487;-74
2021/06/26 08:57:29;;;;;;;12.50;10.10;;;;;;;21.92;54.84;96821.59;3549145;40;20507;-76
2021/06/26 08:59:58;;;;;;;17.03;11.57;;;;;;;22.31;55.71;96836.00;3548500;40;20451;-75
2021/06/26 09:02:28;;;;;;;17.23;10.40;;;;;;;22.55;55.61;96835.03;3552492;40;20465;-75
2021/06/26 09:04:59;;;;;;;12.03;10.50;;;;;;;23.73;53.89;96830.34;3554350;40;20864;-75
2021/06/26 09:07:29;;;;;;;13.40;9.77;;;;;;;23.56;51.92;96818.97;3555004;40;20821;-76
2021/06/26 09:09:58;;;;;;;13.97;11.20;;;;;;;24.39;49.22;96819.75;3553436;40;20553;-75
2021/06/26 09:12:27;;;;;;;14.40;10.23;;;;;;;23.00;51.75;96819.25;3552877;40;20479;-76
2021/06/26 09:14:55;;;;;;;47.73;35.07;;;;;;;23.68;52.64;96817.53;3551760;40;20697;-77
2021/06/26 09:17:34;;;;;;;89.60;63.33;;;;;;;23.88;51.11;96813.31;3548657;40;21225;-76
2021/06/26 09:20:05;;;;;;;16.23;12.33;;;;;;;24.27;50.66;96812.19;3553156;40;21108;-76
2021/06/26 09:22:41;;;;;;;14.07;9.37;;;;;;;24.97;49.41;96806.41;3550448;40;20494;-74
2021/06/26 09:25:25;;;;;;;12.33;9.77;;;;;;;25.37;48.20;96814.84;3548693;40;20603;-78
2021/06/26 09:27:53;;;;;;;15.93;9.90;;;;;;;25.18;48.74;96821.66;3548689;40;20522;-74
2021/06/26 09:30:36;;;;;;;19.20;9.73;;;;;;;25.22;47.80;96817.59;3550133;40;20939;-77
2021/06/26 09:33:12;;;;;;;14.80;9.73;;;;;;;25.23;48.54;96811.22;3550561;40;20460;-75
2021/06/26 09:35:41;;;;;;;15.27;9.47;;;;;;;25.18;47.93;96814.44;3548293;40;20467;-76
2021/06/26 09:38:11;;;;;;;15.77;8.80;;;;;;;25.30;48.86;96809.41;3545910;40;20455;-75
2021/06/26 09:40:41;;;;;;;11.20;9.20;;;;;;;26.07;45.85;96813.09;3550338;40;20459;-76
2021/06/26 09:43:10;;;;;;;12.90;8.50;;;;;;;25.46;48.02;96808.28;3550335;40;20447;-75
2021/06/26 09:45:38;;;;;;;13.07;8.80;;;;;;;26.37;45.25;96802.91;3550844;40;20468;-77
2021/06/26 09:48:08;;;;;;;22.53;8.30;;;;;;;26.81;43.88;96790.03;3550529;40;20929;-74
2021/06/26 09:50:39;;;;;;;11.70;8.67;;;;;;;27.26;43.23;96795.69;3548154;40;20844;-76
2021/06/26 09:53:07;;;;;;;11.33;7.83;;;;;;;27.21;43.47;96801.69;3548874;40;20538;-77
2021/06/26 09:55:38;;;;;;;10.03;8.20;;;;;;;26.26;45.04;96792.72;3550694;40;20863;-75
2021/06/26 09:58:10;;;;;;;9.37;7.27;;;;;;;26.92;43.50;96794.81;3551720;40;20439;-75
2021/06/26 10:00:40;;;;;;;10.50;7.90;;;;;;;27.35;42.03;96799.84;3551085;40;20789;-77
2021/06/26 10:03:09;;;;;;;9.53;7.60;;;;;;;26.94;43.71;96794.63;3550932;40;20514;-77
2021/06/26 10:05:38;;;;;;;10.30;8.43;;;;;;;26.18;44.35;96792.91;3550999;40;20732;-76
2021/06/26 10:08:07;;;;;;;11.57;9.03;;;;;;;25.02;43.96;96788.72;3547524;40;20682;-75
2021/06/26 10:10:37;;;;;;;13.00;8.90;;;;;;;25.06;42.80;96797.22;3550640;40;20521;-75
2021/06/26 10:13:05;;;;;;;13.10;8.27;;;;;;;23.63;46.75;96803.88;3550941;40;20452;-75
2021/06/26 10:15:34;;;;;;;10.23;7.70;;;;;;;25.10;45.83;96792.31;3549303;40;20838;-78
2021/06/26 10:18:02;;;;;;;10.47;7.93;;;;;;;25.23;43.65;96795.97;3549262;40;21087;-77
2021/06/26 10:20:30;;;;;;;18.80;14.73;;;;;;;25.49;44.55;96778.44;3554790;40;20886;-75
2021/06/26 10:23:01;;;;;;;9.30;8.30;;;;;;;26.36;43.02;96800.41;3550222;40;20829;-75
2021/06/26 10:25:30;;;;;;;11.10;7.70;;;;;;;25.82;44.17;96792.06;3549315;40;20595;-75
2021/06/26 10:28:07;;;;;;;14.90;8.40;;;;;;;23.83;47.18;96788.16;3550949;40;20506;-75
2021/06/26 10:30:37;;;;;;;10.30;7.20;;;;;;;23.68;48.48;96788.94;3550939;40;20778;-75
2021/06/26 10:33:08;;;;;;;7.70;6.53;;;;;;;25.50;46.94;96784.63;3550310;40;20538;-74
2021/06/26 10:35:38;;;;;;;9.03;7.47;;;;;;;26.27;45.50;96783.66;3550706;40;20464;-75
2021/06/26 10:38:08;;;;;;;12.13;7.63;;;;;;;27.02;41.83;96776.44;3553338;40;20462;-75
2021/06/26 10:40:39;;;;;;;8.57;7.50;;;;;;;27.07;41.16;96775.84;3554473;40;21164;-76
2021/06/26 10:43:24;;;;;;;10.90;7.20;;;;;;;25.77;43.74;96773.03;3552137;40;20750;-76
2021/06/26 10:46:07;;;;;;;41.50;27.63;;;;;;;26.00;44.94;96772.78;3550061;40;20466;-76
2021/06/26 10:48:37;;;;;;;8.57;6.93;;;;;;;27.15;43.27;96774.81;3546730;40;20495;-76
2021/06/26 10:51:09;;;;;;;12.00;6.77;;;;;;;26.11;42.20;96768.72;3546251;40;20471;-76
2021/06/26 10:53:38;;;;;;;9.13;6.93;;;;;;;26.25;43.53;96777.66;3551976;40;20645;-77
2021/06/26 10:56:09;;;;;;;7.30;6.10;;;;;;;28.20;39.02;96775.69;3552388;40;21187;-76
2021/06/26 10:58:40;;;;;;;7.57;6.40;;;;;;;26.98;40.61;96772.50;3555743;40;20441;-76
2021/06/26 11:01:17;;;;;;;10.13;6.33;;;;;;;26.89;41.79;96762.97;3551639;40;20868;-76
2021/06/26 11:03:46;;;;;;;12.87;7.00;;;;;;;26.35;41.55;96770.06;3551048;40;20495;-76
2021/06/26 11:06:17;;;;;;;8.70;6.17;;;;;;;27.92;40.77;96767.94;3548500;40;20855;-76
2021/06/26 11:09:01;;;;;;;8.40;5.97;;;;;;;27.29;40.55;96763.03;3548777;40;20799;-76
2021/06/26 11:11:39;;;;;;;9.60;5.60;;;;;;;27.11;42.49;96773.53;3550852;40;20459;-75
2021/06/26 11:14:11;;;;;;;10.60;6.60;;;;;;;26.74;41.26;96773.09;3558485;40;20847;-76
2021/06/26 11:16:41;;;;;;;8.10;6.40;;;;;;;26.92;41.62;96751.84;3550503;40;20452;-76
2021/06/26 11:19:09;;;;;;;13.80;8.60;;;;;;;25.96;43.04;96768.84;3550837;40;20814;-75
2021/06/26 11:21:39;;;;;;;18.47;11.13;;;;;;;26.69;43.32;96767.50;3556715;40;20948;-74
2021/06/26 11:24:07;;;;;;;17.20;6.93;;;;;;;27.10;40.69;96767.34;3547785;40;20659;-75
2021/06/26 11:26:48;;;;;;;6.57;5.70;;;;;;;28.04;41.15;96759.22;3546880;40;20755;-75